createdAt,value
2018-01-31T01:53:25.922Z,6.60
2018-01-31T01:55:54.177Z,6.50
2018-01-31T01:58:22.465Z,6.60
2018-01-31T02:00:50.726Z,6.60
2018-01-31T02:03:18.977Z,6.60
2018-01-31T02:05:48.012Z,6.60
2018-01-31T02:08:16.263Z,6.50
2018-01-31T02:10:44.554Z,6.60
2018-01-31T02:13:12.965Z,6.60
2018-01-31T02:15:41.223Z,6.60
2018-01-31T02:18:09.538Z,6.60
2018-01-31T02:20:38.561Z,6.70
2018-01-31T02:23:06.876Z,6.60
2018-01-31T02:25:35.175Z,6.60
2018-01-31T02:28:03.435Z,6.70
2018-01-31T02:30:31.694Z,6.70
2018-01-31T02:33:00.130Z,6.70
2018-01-31T02:35:29.148Z,6.80
2018-01-31T02:37:57.413Z,6.80
2018-01-31T02:40:26.470Z,6.90
2018-01-31T02:42:54.710Z,6.90
2018-01-31T02:45:22.964Z,7.00
2018-01-31T02:47:51.253Z,7.10
2018-01-31T02:50:19.517Z,7.20
2018-01-31T02:52:47.762Z,7.30
2018-01-31T02:55:16.023Z,7.40
2018-01-31T02:57:45.065Z,7.60
2018-01-31T03:00:13.310Z,7.60
2018-01-31T03:02:41.710Z,7.70
2018-01-31T03:05:09.967Z,7.80
2018-01-31T03:07:38.237Z,7.90
2018-01-31T03:10:06.521Z,7.90
2018-01-31T03:12:34.824Z,8.00
2018-01-31T03:15:03.153Z,8.10
2018-01-31T03:17:31.476Z,8.10
2018-01-31T03:19:59.736Z,8.20
2018-01-31T03:22:27.985Z,8.30
2018-01-31T03:24:56.273Z,8.40
2018-01-31T03:27:24.517Z,8.50
2018-01-31T03:29:53.536Z,8.60
2018-01-31T03:32:21.967Z,8.60
2018-01-31T03:34:50.234Z,8.70
2018-01-31T03:37:18.519Z,8.70
2018-01-31T03:39:46.757Z,8.70
2018-01-31T03:42:15.000Z,8.80
2018-01-31T03:44:43.255Z,8.80
2018-01-31T03:47:12.290Z,8.90
2018-01-31T03:49:40.534Z,8.80
2018-01-31T03:52:09.574Z,9.00
2018-01-31T03:54:37.799Z,9.00
2018-01-31T03:57:06.063Z,9.00
2018-01-31T03:59:34.332Z,9.00
2018-01-31T04:02:02.541Z,9.10
2018-01-31T04:04:30.824Z,9.10
2018-01-31T04:06:59.082Z,9.10
2018-01-31T04:09:28.107Z,9.20
2018-01-31T04:11:56.334Z,9.20
2018-01-31T04:14:25.362Z,9.30
2018-01-31T04:16:53.609Z,9.30
2018-01-31T04:19:22.618Z,9.30
2018-01-31T04:21:50.899Z,9.30
2018-01-31T04:24:19.155Z,9.40
2018-01-31T04:26:47.435Z,9.40
2018-01-31T04:29:15.697Z,9.40
2018-01-31T04:31:44.709Z,9.40
2018-01-31T04:34:12.961Z,9.40
2018-01-31T04:36:41.975Z,9.50
2018-01-31T04:39:10.226Z,9.40
2018-01-31T04:41:39.233Z,9.50
2018-01-31T04:44:07.471Z,9.50
2018-01-31T04:46:35.901Z,9.50
2018-01-31T04:49:04.134Z,9.60
2018-01-31T04:51:32.386Z,9.60
2018-01-31T04:54:00.633Z,9.60
2018-01-31T04:56:28.898Z,9.60
2018-01-31T04:58:57.162Z,9.60
2018-01-31T05:01:26.208Z,9.70
2018-01-31T05:03:54.600Z,9.60
2018-01-31T05:06:22.830Z,9.70
2018-01-31T05:08:51.164Z,9.70
2018-01-31T05:11:19.466Z,9.70
2018-01-31T05:13:47.716Z,9.70
2018-01-31T05:16:16.715Z,9.80
2018-01-31T05:18:45.875Z,9.80
2018-01-31T05:21:14.132Z,9.70
2018-01-31T05:23:43.198Z,9.70
2018-01-31T05:26:11.470Z,9.70
2018-01-31T05:28:39.738Z,9.70
2018-01-31T05:31:07.977Z,9.70
2018-01-31T05:33:36.245Z,9.70
2018-01-31T05:36:04.476Z,9.70
2018-01-31T05:38:32.698Z,9.60
2018-01-31T05:41:01.181Z,9.60
2018-01-31T05:43:29.401Z,9.60
2018-01-31T05:45:57.659Z,9.60
2018-01-31T05:48:26.638Z,9.60
2018-01-31T05:50:55.811Z,9.60
2018-01-31T05:53:25.566Z,9.60
2018-01-31T05:55:53.908Z,9.60
2018-01-31T05:58:22.110Z,9.70
2018-01-31T06:00:50.397Z,9.70
2018-01-31T06:03:18.627Z,9.70
2018-01-31T06:05:47.651Z,9.70
2018-01-31T06:08:17.469Z,9.70
2018-01-31T06:10:45.710Z,9.70
2018-01-31T06:13:14.735Z,9.80
2018-01-31T06:15:43.070Z,9.70
2018-01-31T06:18:12.111Z,9.70
2018-01-31T06:20:40.341Z,9.70
2018-01-31T06:23:08.587Z,9.70
2018-01-31T06:25:36.843Z,9.70
2018-01-31T06:28:05.120Z,9.60
2018-01-31T06:30:33.354Z,9.60
2018-01-31T06:33:02.383Z,9.60
2018-01-31T06:35:30.624Z,9.50
2018-01-31T06:37:59.625Z,9.50
2018-01-31T06:40:28.642Z,9.50
2018-01-31T06:42:56.930Z,9.50
2018-01-31T06:45:25.187Z,9.50
2018-01-31T06:47:53.443Z,9.50
2018-01-31T06:50:21.705Z,9.50
2018-01-31T06:52:50.708Z,9.50
2018-01-31T06:55:18.955Z,9.40
2018-01-31T06:57:47.194Z,9.50
2018-01-31T07:00:15.484Z,9.40
2018-01-31T07:02:43.725Z,9.40
2018-01-31T07:05:11.999Z,9.40
2018-01-31T07:07:40.241Z,9.40
2018-01-31T07:10:09.284Z,9.40
2018-01-31T07:12:37.518Z,9.40
2018-01-31T07:15:05.867Z,9.40
2018-01-31T07:17:34.113Z,9.40
2018-01-31T07:20:02.362Z,9.40
2018-01-31T07:22:30.597Z,9.40
2018-01-31T07:24:59.627Z,9.50
2018-01-31T07:27:27.939Z,9.40
2018-01-31T07:29:56.182Z,9.50
2018-01-31T07:32:24.446Z,9.50
2018-01-31T07:34:52.696Z,9.50
2018-01-31T07:37:20.969Z,9.60
2018-01-31T07:39:49.473Z,9.60
2018-01-31T07:42:17.719Z,9.60
2018-01-31T07:44:45.965Z,9.60
2018-01-31T07:47:14.244Z,9.60
2018-01-31T07:49:42.470Z,9.60
2018-01-31T07:52:10.735Z,9.60
2018-01-31T07:54:39.730Z,9.60
2018-01-31T07:57:07.991Z,9.60
2018-01-31T07:59:37.012Z,9.60
2018-01-31T08:02:05.256Z,9.60
2018-01-31T08:04:34.276Z,9.60
2018-01-31T08:07:02.503Z,9.60
2018-01-31T08:09:30.744Z,9.60
2018-01-31T08:11:58.999Z,9.60
2018-01-31T08:14:27.293Z,9.70
2018-01-31T08:16:55.534Z,9.70
2018-01-31T08:19:24.542Z,9.70
2018-01-31T08:21:52.785Z,9.70
2018-01-31T08:24:21.806Z,9.70
2018-01-31T08:26:50.066Z,9.70
2018-01-31T08:29:18.442Z,9.70
2018-01-31T08:31:47.442Z,9.80
2018-01-31T08:34:15.779Z,9.70
2018-01-31T08:36:44.047Z,9.80
2018-01-31T08:39:12.306Z,9.80
2018-01-31T08:41:40.545Z,9.80
2018-01-31T08:44:08.790Z,9.80
2018-01-31T08:46:37.802Z,9.90
2018-01-31T08:49:06.074Z,9.90
2018-01-31T08:51:35.094Z,9.90
2018-01-31T08:54:03.406Z,9.90
2018-01-31T08:56:31.687Z,9.90
2018-01-31T08:59:00.011Z,10.00
2018-01-31T09:01:28.386Z,10.00
2018-01-31T09:03:56.625Z,10.00
2018-01-31T09:06:25.659Z,10.00
2018-01-31T09:08:54.105Z,10.00
2018-01-31T09:11:22.358Z,10.00
2018-01-31T09:13:50.654Z,10.00
2018-01-31T09:16:18.939Z,10.00
2018-01-31T09:18:47.218Z,10.00
2018-01-31T09:21:16.215Z,10.00
2018-01-31T09:23:44.472Z,10.00
2018-01-31T09:26:13.525Z,10.10
2018-01-31T09:28:42.025Z,10.00
2018-01-31T09:31:10.254Z,10.10
2018-01-31T09:33:38.497Z,10.10
2018-01-31T09:36:06.782Z,10.10
2018-01-31T09:38:35.212Z,10.20
2018-01-31T09:41:03.525Z,10.20
2018-01-31T09:43:31.738Z,10.20
2018-01-31T09:45:59.991Z,10.20
2018-01-31T09:48:28.234Z,10.20
2018-01-31T09:50:57.363Z,10.30
2018-01-31T09:53:32.025Z,10.30
2018-01-31T09:56:00.269Z,10.30
2018-01-31T09:58:28.510Z,10.40
2018-01-31T10:00:57.547Z,10.30
2018-01-31T10:03:25.813Z,10.20
2018-01-31T10:05:54.072Z,10.30
2018-01-31T10:08:22.319Z,10.20
2018-01-31T10:10:51.420Z,10.10
2018-01-31T10:13:19.642Z,10.10
2018-01-31T10:15:47.909Z,10.10
2018-01-31T10:18:16.173Z,10.10
2018-01-31T10:20:44.411Z,10.10
2018-01-31T10:23:13.421Z,10.10
2018-01-31T10:25:41.660Z,10.00
2018-01-31T10:28:09.950Z,10.00
2018-01-31T10:30:38.973Z,9.90
2018-01-31T10:33:07.218Z,9.90
2018-01-31T10:35:36.244Z,9.90
2018-01-31T10:38:04.494Z,9.80
2018-01-31T10:40:33.494Z,9.80
2018-01-31T10:43:01.998Z,9.80
2018-01-31T10:45:30.270Z,9.80
2018-01-31T10:47:58.530Z,9.70
2018-01-31T10:50:26.774Z,9.80
2018-01-31T10:52:55.835Z,9.70
2018-01-31T10:57:52.605Z,9.70
2018-01-31T11:00:20.866Z,9.70
2018-01-31T11:02:49.132Z,9.70
2018-01-31T11:05:17.459Z,9.70
2018-01-31T11:07:46.545Z,9.70
2018-01-31T11:10:15.605Z,9.70
2018-01-31T11:12:43.868Z,9.70
2018-01-31T11:15:12.143Z,9.70
2018-01-31T11:17:40.404Z,9.70
2018-01-31T11:20:08.684Z,9.70
2018-01-31T11:22:36.982Z,9.70
2018-01-31T11:25:05.249Z,9.70
2018-01-31T11:27:34.558Z,9.60
2018-01-31T11:30:02.768Z,9.60
2018-01-31T11:32:31.803Z,9.60
2018-01-31T11:35:00.415Z,9.50
2018-01-31T11:37:28.749Z,9.50
2018-01-31T11:39:56.974Z,9.50
2018-01-31T11:42:25.230Z,9.50
2018-01-31T11:44:53.467Z,9.60
2018-01-31T11:47:21.750Z,9.60
2018-01-31T11:49:49.991Z,9.60
2018-01-31T11:52:18.228Z,9.60
2018-01-31T11:54:46.466Z,9.60
2018-01-31T11:57:14.729Z,9.60
2018-01-31T11:59:43.762Z,9.70
2018-01-31T12:02:12.039Z,9.70
2018-01-31T12:04:40.353Z,9.70
2018-01-31T12:07:09.406Z,9.70
2018-01-31T12:09:37.695Z,9.70
2018-01-31T12:12:06.128Z,9.60
2018-01-31T12:14:47.058Z,9.50
2018-01-31T12:17:15.314Z,9.40
2018-01-31T12:22:55.732Z,9.40
2018-01-31T12:25:35.947Z,9.40
2018-01-31T12:28:15.994Z,9.40
2018-01-31T12:30:56.376Z,9.40
2018-01-31T12:33:36.516Z,9.30
2018-01-31T12:36:16.690Z,9.30
2018-01-31T12:38:59.532Z,9.30
2018-01-31T12:41:27.998Z,9.00
2018-01-31T12:43:55.701Z,9.00
2018-01-31T12:49:36.134Z,8.70
2018-01-31T12:55:17.449Z,8.60
2018-01-31T12:57:57.774Z,8.70
2018-01-31T13:00:37.892Z,8.80
2018-01-31T13:03:18.185Z,8.80
2018-01-31T13:05:58.184Z,8.80
2018-01-31T13:08:38.202Z,8.80
2018-01-31T13:11:18.309Z,8.80
2018-01-31T13:13:50.498Z,8.70
2018-01-31T13:16:30.472Z,8.70
2018-01-31T13:22:10.549Z,8.60
2018-01-31T13:24:50.521Z,8.60
2018-01-31T13:27:25.226Z,8.60
2018-01-31T13:30:05.172Z,8.60
2018-01-31T13:32:41.023Z,8.60
2018-01-31T13:35:20.950Z,8.60
2018-01-31T13:38:00.998Z,8.60
2018-01-31T13:40:41.100Z,8.60
2018-01-31T13:43:21.032Z,8.70
2018-01-31T13:46:00.951Z,8.70
2018-01-31T13:48:40.925Z,8.70
2018-01-31T13:51:20.929Z,8.70
2018-01-31T13:54:02.351Z,8.60
2018-01-31T13:56:42.398Z,8.60
2018-01-31T13:59:22.325Z,8.60
2018-01-31T14:02:02.312Z,8.60
2018-01-31T14:04:42.210Z,8.60
2018-01-31T14:07:22.283Z,8.60
2018-01-31T14:10:02.345Z,8.60
2018-01-31T14:12:42.288Z,8.50
2018-01-31T14:15:22.206Z,8.60
2018-01-31T14:18:02.190Z,8.50
2018-01-31T14:20:42.123Z,8.40
2018-01-31T14:23:21.966Z,8.40
2018-01-31T14:26:01.896Z,8.30
2018-01-31T14:28:42.043Z,8.20
2018-01-31T14:31:22.865Z,8.10
2018-01-31T14:34:03.266Z,8.00
2018-01-31T14:36:31.502Z,8.00
2018-01-31T14:38:58.945Z,7.90
2018-01-31T14:41:26.386Z,7.90
2018-01-31T14:43:53.836Z,7.80
2018-01-31T14:46:21.293Z,7.80
2018-01-31T14:48:48.745Z,7.70
2018-01-31T14:51:16.204Z,7.70
2018-01-31T14:53:43.665Z,7.70
2018-01-31T14:56:11.118Z,7.60
2018-01-31T14:58:38.527Z,7.60
2018-01-31T15:01:06.758Z,7.60
2018-01-31T15:03:34.218Z,7.50
2018-01-31T15:06:01.666Z,7.60
2018-01-31T15:08:29.110Z,7.60
2018-01-31T15:10:56.562Z,7.50
2018-01-31T15:13:24.139Z,7.50
2018-01-31T15:15:51.583Z,7.50
2018-01-31T15:18:19.046Z,7.50
2018-01-31T15:20:46.515Z,7.50
2018-01-31T15:23:13.967Z,7.50
2018-01-31T15:25:41.434Z,7.50
2018-01-31T15:28:08.895Z,7.50
2018-01-31T15:30:37.893Z,7.40
2018-01-31T15:33:05.362Z,7.40
2018-01-31T15:35:32.829Z,7.50
2018-01-31T15:38:01.093Z,7.40
2018-01-31T15:40:28.596Z,7.40
2018-01-31T15:42:56.078Z,7.40
2018-01-31T15:45:23.596Z,7.40
2018-01-31T15:47:51.158Z,7.40
2018-01-31T15:50:18.666Z,7.40
2018-01-31T15:52:46.914Z,7.40
2018-01-31T15:57:55.943Z,7.40
2018-01-31T16:00:23.409Z,7.40
2018-01-31T16:02:50.866Z,7.40
2018-01-31T16:05:18.313Z,7.40
2018-01-31T16:07:45.761Z,7.40
2018-01-31T16:10:13.238Z,7.30
2018-01-31T16:12:40.723Z,7.30
2018-01-31T16:15:08.190Z,7.30
2018-01-31T16:17:36.962Z,7.30
2018-01-31T16:20:16.697Z,7.20
2018-01-31T16:22:44.687Z,7.30
2018-01-31T16:25:13.455Z,7.30
2018-01-31T16:27:53.458Z,7.20
2018-01-31T16:30:22.337Z,7.30
2018-01-31T16:33:02.359Z,7.30
2018-01-31T16:35:31.137Z,7.20
2018-01-31T16:37:59.247Z,7.20
2018-01-31T16:40:28.016Z,7.10
2018-01-31T16:42:56.805Z,7.10
2018-01-31T16:45:25.654Z,7.10
2018-01-31T16:47:53.650Z,7.10
2018-01-31T16:50:22.435Z,7.00
2018-01-31T16:52:51.220Z,7.00
2018-01-31T16:55:19.966Z,7.00
2018-01-31T16:57:47.979Z,7.00
2018-01-31T17:00:16.804Z,7.00
2018-01-31T17:02:44.811Z,7.00
2018-01-31T17:05:12.784Z,7.00
2018-01-31T17:07:40.841Z,7.00
2018-01-31T17:10:08.786Z,6.90
2018-01-31T17:12:36.790Z,6.90
2018-01-31T17:15:05.080Z,6.80
2018-01-31T17:17:33.318Z,6.70
2018-01-31T17:20:02.286Z,6.60
2018-01-31T17:22:30.573Z,6.50
2018-01-31T17:24:59.655Z,6.40
2018-01-31T17:27:27.918Z,6.40
2018-01-31T17:29:56.155Z,6.40
2018-01-31T17:32:24.402Z,6.30
2018-01-31T17:34:53.460Z,6.20
2018-01-31T17:37:21.664Z,6.20
2018-01-31T17:39:50.705Z,6.10
2018-01-31T17:42:18.971Z,6.10
2018-01-31T17:44:47.245Z,6.00
2018-01-31T17:47:15.501Z,6.00
2018-01-31T17:49:43.825Z,5.90
2018-01-31T17:52:12.914Z,5.80
2018-01-31T17:54:41.210Z,5.80
2018-01-31T17:57:09.581Z,5.80
2018-01-31T17:59:38.598Z,5.70
2018-01-31T18:02:06.869Z,5.70
2018-01-31T18:04:35.933Z,5.70
2018-01-31T18:07:04.177Z,5.70
2018-01-31T18:09:32.515Z,5.70
2018-01-31T18:12:00.977Z,5.60
2018-01-31T18:14:29.282Z,5.60
2018-01-31T18:16:57.599Z,5.60
2018-01-31T18:19:25.891Z,5.60
2018-01-31T18:21:54.267Z,5.60
2018-01-31T18:24:22.531Z,5.60
2018-01-31T18:26:50.898Z,5.60
2018-01-31T18:29:19.191Z,5.50
2018-01-31T18:31:48.958Z,5.40
2018-01-31T18:34:17.256Z,5.40
2018-01-31T18:36:45.675Z,5.50
2018-01-31T18:39:13.931Z,5.40
2018-01-31T18:41:42.157Z,5.40
2018-01-31T18:44:11.346Z,5.40
2018-01-31T18:46:39.540Z,5.40
2018-01-31T18:49:07.773Z,5.40
2018-01-31T18:51:36.782Z,5.50
2018-01-31T18:54:05.063Z,5.40
2018-01-31T18:56:33.401Z,5.50
2018-01-31T18:59:01.704Z,5.50
2018-01-31T19:01:29.907Z,5.40
2018-01-31T19:03:58.223Z,5.50
2018-01-31T19:06:26.460Z,5.50
2018-01-31T19:08:54.713Z,5.50
2018-01-31T19:11:23.874Z,5.50
2018-01-31T19:13:52.142Z,5.50
2018-01-31T19:16:20.404Z,5.50
2018-01-31T19:18:48.668Z,5.40
2018-01-31T19:21:16.951Z,5.50
2018-01-31T19:23:45.222Z,5.50
2018-01-31T19:26:13.473Z,5.50
2018-01-31T19:28:41.725Z,5.40
2018-01-31T19:31:10.036Z,5.30
2018-01-31T19:33:38.285Z,5.30
2018-01-31T19:36:06.583Z,5.20
2018-01-31T19:38:34.829Z,5.10
2018-01-31T19:41:03.093Z,5.10
2018-01-31T19:43:32.096Z,5.00
2018-01-31T19:46:00.389Z,4.90
2018-01-31T19:48:28.681Z,4.90
2018-01-31T19:50:56.991Z,4.90
2018-01-31T19:53:25.343Z,4.90
2018-01-31T19:55:55.119Z,4.80
2018-01-31T19:58:23.382Z,4.80
2018-01-31T20:00:51.759Z,4.80
2018-01-31T20:03:20.245Z,4.80
2018-01-31T20:05:48.517Z,4.80
2018-01-31T20:08:16.836Z,4.80
2018-01-31T20:10:45.070Z,4.80
2018-01-31T20:13:13.355Z,4.80
2018-01-31T20:15:41.775Z,4.90
2018-01-31T20:18:10.795Z,4.90
2018-01-31T20:20:39.834Z,4.90
2018-01-31T20:23:08.103Z,4.80
2018-01-31T20:25:36.407Z,4.90
2018-01-31T20:28:05.525Z,4.90
2018-01-31T20:30:34.545Z,4.90
2018-01-31T20:33:02.831Z,4.80
2018-01-31T20:35:31.101Z,4.90
2018-01-31T20:37:59.343Z,4.90
2018-01-31T20:40:28.378Z,5.00
2018-01-31T20:42:56.690Z,4.90
2018-01-31T20:45:25.802Z,5.00
2018-01-31T20:47:54.075Z,5.00
2018-01-31T20:50:22.321Z,5.00
2018-01-31T20:52:52.149Z,5.00
2018-01-31T20:55:21.176Z,5.10
2018-01-31T20:57:49.458Z,5.00
2018-01-31T21:00:17.698Z,5.10
2018-01-31T21:02:46.726Z,5.00
2018-01-31T21:05:15.009Z,5.00
2018-01-31T21:07:43.248Z,5.10
2018-01-31T21:10:11.540Z,5.10
2018-01-31T21:12:40.579Z,5.10
2018-01-31T21:15:09.853Z,5.10
2018-01-31T21:17:38.379Z,5.10
2018-01-31T21:20:07.426Z,5.10
2018-01-31T21:22:35.696Z,5.10
2018-01-31T21:25:04.047Z,5.10
2018-01-31T21:27:32.327Z,5.20
2018-01-31T21:30:00.630Z,5.20
2018-01-31T21:32:28.891Z,5.20
2018-01-31T21:34:57.124Z,5.20
2018-01-31T21:37:26.211Z,5.10
2018-01-31T21:39:55.262Z,5.10
2018-01-31T21:42:23.632Z,5.10
2018-01-31T21:44:51.906Z,5.10
2018-01-31T21:47:20.161Z,5.10
2018-01-31T21:49:48.421Z,5.10
2018-01-31T21:52:16.747Z,5.10
2018-01-31T21:54:45.011Z,5.10
2018-01-31T21:57:13.302Z,5.00
2018-01-31T21:59:41.744Z,5.00
2018-01-31T22:02:10.013Z,5.00
2018-01-31T22:04:38.302Z,5.00
2018-01-31T22:07:06.573Z,4.90
2018-01-31T22:09:35.305Z,4.90
2018-01-31T22:12:03.907Z,4.90
2018-01-31T22:14:32.189Z,4.80
2018-01-31T22:17:01.193Z,4.80
2018-01-31T22:19:30.259Z,4.80
2018-01-31T22:21:58.508Z,4.70
2018-01-31T22:24:26.855Z,4.70
2018-01-31T22:26:55.138Z,4.70
2018-01-31T22:29:23.515Z,4.70
2018-01-31T22:31:51.765Z,4.70
2018-01-31T22:34:20.100Z,4.60
2018-01-31T22:36:48.515Z,4.60
2018-01-31T22:39:17.545Z,4.50
2018-01-31T22:41:45.837Z,4.50
2018-01-31T22:44:14.115Z,4.50
2018-01-31T22:46:42.375Z,4.50
2018-01-31T22:49:10.666Z,4.40
2018-01-31T22:51:39.055Z,4.40
2018-01-31T22:54:07.319Z,4.40
2018-01-31T22:56:35.565Z,4.30
2018-01-31T22:59:03.842Z,4.30
2018-01-31T23:01:32.140Z,4.20
2018-01-31T23:04:00.387Z,4.20
2018-01-31T23:06:28.708Z,4.20
2018-01-31T23:08:57.035Z,4.10
2018-01-31T23:11:25.346Z,4.10
2018-01-31T23:13:53.646Z,4.00
2018-01-31T23:16:21.930Z,4.00
2018-01-31T23:18:50.178Z,3.90
2018-01-31T23:21:18.485Z,3.90
2018-01-31T23:23:47.607Z,3.80
2018-01-31T23:26:15.869Z,3.80
2018-01-31T23:28:44.937Z,3.70
2018-01-31T23:31:13.153Z,3.60
2018-01-31T23:33:41.431Z,3.60
2018-01-31T23:36:09.687Z,3.60
2018-01-31T23:38:38.842Z,3.50
2018-01-31T23:41:07.194Z,3.40
2018-01-31T23:43:35.590Z,3.50
2018-01-31T23:46:03.859Z,3.40
2018-01-31T23:48:32.090Z,3.40
2018-01-31T23:51:00.386Z,3.30
2018-01-31T23:53:31.827Z,3.30
2018-01-31T23:56:00.125Z,3.30
2018-01-31T23:58:28.366Z,3.30
